Terminal Aerodrome Forecast
Issued by NWS Wakefield, VA

Home | Current Version | Previous Version | Text Only | Print | Product List | Glossary On
Versions: 1 2 3 4 5 6 7 8 9 10 11 12 13 14 15
000
FTUS41 KAKQ 312339
TAFRIC
TAF
KRIC 312339Z 0100/0124 15004KT P6SM BKN050
     FM011200 25005KT P6SM BKN060
     FM011500 33006KT P6SM BKN050
     FM012100 34008KT P6SM BKN050=

USA.gov is the U.S. government's official web portal to all federal, state and local government web resources and services.